sensor_id;sensor_type;location;lat;lon;timestamp;pressure;altitude;pressure_sealevel;temperature;humidity
42887;BME280;29032;56.028;92.904;2022-10-16T00:01:05;100927.50;;;2.14;52.54
42887;BME280;29032;56.028;92.904;2022-10-16T00:06:07;100923.81;;;2.08;52.75
42887;BME280;29032;56.028;92.904;2022-10-16T00:11:12;100916.53;;;2.14;53.16
42887;BME280;29032;56.028;92.904;2022-10-16T00:16:16;100917.19;;;2.18;53.06
42887;BME280;29032;56.028;92.904;2022-10-16T00:21:20;100917.19;;;2.18;53.28
42887;BME280;29032;56.028;92.904;2022-10-16T00:26:22;100930.16;;;2.18;52.97
42887;BME280;29032;56.028;92.904;2022-10-16T00:31:26;100923.34;;;2.22;52.71
42887;BME280;29032;56.028;92.904;2022-10-16T00:36:29;100915.66;;;2.17;52.64
42887;BME280;29032;56.028;92.904;2022-10-16T00:41:31;100917.19;;;2.18;52.47
42887;BME280;29032;56.028;92.904;2022-10-16T00:46:38;100913.91;;;2.23;52.44
42887;BME280;29032;56.028;92.904;2022-10-16T00:51:42;100914.22;;;2.26;52.64
42887;BME280;29032;56.028;92.904;2022-10-16T00:56:45;100917.50;;;2.20;52.30
42887;BME280;29032;56.028;92.904;2022-10-16T01:01:49;100913.44;;;2.12;52.43
42887;BME280;29032;56.028;92.904;2022-10-16T01:06:58;100904.00;;;2.13;52.66
42887;BME280;29032;56.028;92.904;2022-10-16T01:12:09;100909.94;;;1.99;52.54
42887;BME280;29032;56.028;92.904;2022-10-16T01:17:17;100912.47;;;1.81;54.01
42887;BME280;29032;56.028;92.904;2022-10-16T01:22:25;100903.88;;;1.79;53.51
42887;BME280;29032;56.028;92.904;2022-10-16T01:27:35;100904.78;;;1.34;54.15
42887;BME280;29032;56.028;92.904;2022-10-16T01:32:40;100908.75;;;0.75;56.29
42887;BME280;29032;56.028;92.904;2022-10-16T01:37:48;100908.38;;;0.89;56.34
42887;BME280;29032;56.028;92.904;2022-10-16T01:42:56;100910.16;;;1.25;56.05
42887;BME280;29032;56.028;92.904;2022-10-16T01:48:02;100908.44;;;1.44;55.53
42887;BME280;29032;56.028;92.904;2022-10-16T01:53:07;100906.34;;;1.35;55.43
42887;BME280;29032;56.028;92.904;2022-10-16T01:58:13;100904.91;;;1.01;55.92
42887;BME280;29032;56.028;92.904;2022-10-16T02:03:18;100906.91;;;0.84;56.96
42887;BME280;29032;56.028;92.904;2022-10-16T02:08:22;100923.47;;;0.81;56.74
42887;BME280;29032;56.028;92.904;2022-10-16T02:13:30;100915.25;;;0.65;57.70
42887;BME280;29032;56.028;92.904;2022-10-16T02:18:33;100909.41;;;0.79;58.01
42887;BME280;29032;56.028;92.904;2022-10-16T02:23:39;100909.09;;;1.06;56.88
42887;BME280;29032;56.028;92.904;2022-10-16T02:28:52;100904.09;;;1.17;56.24
42887;BME280;29032;56.028;92.904;2022-10-16T02:33:57;100906.47;;;1.02;56.47
42887;BME280;29032;56.028;92.904;2022-10-16T02:39:01;100903.09;;;0.82;56.68
42887;BME280;29032;56.028;92.904;2022-10-16T02:44:04;100903.09;;;0.82;57.50
42887;BME280;29032;56.028;92.904;2022-10-16T02:49:06;100893.59;;;0.99;57.59
42887;BME280;29032;56.028;92.904;2022-10-16T02:54:08;100895.59;;;1.40;56.14
42887;BME280;29032;56.028;92.904;2022-10-16T02:59:12;100887.00;;;1.80;56.02
42887;BME280;29032;56.028;92.904;2022-10-16T03:04:14;100884.75;;;2.13;55.27
42887;BME280;29032;56.028;92.904;2022-10-16T03:09:16;100870.34;;;2.35;54.44
42887;BME280;29032;56.028;92.904;2022-10-16T03:14:20;100871.97;;;2.45;54.68
42887;BME280;29032;56.028;92.904;2022-10-16T03:19:22;100870.09;;;2.42;53.32
42887;BME280;29032;56.028;92.904;2022-10-16T03:24:24;100870.09;;;2.42;54.01
42887;BME280;29032;56.028;92.904;2022-10-16T03:29:28;100865.78;;;2.54;54.48
42887;BME280;29032;56.028;92.904;2022-10-16T03:34:30;100864.22;;;2.65;53.33
42887;BME280;29032;56.028;92.904;2022-10-16T03:39:32;100865.00;;;2.66;54.30
42887;BME280;29032;56.028;92.904;2022-10-16T03:44:35;100864.72;;;2.86;53.90
42887;BME280;29032;56.028;92.904;2022-10-16T03:49:37;100855.63;;;2.98;53.78
42887;BME280;29032;56.028;92.904;2022-10-16T03:54:39;100855.28;;;3.09;53.95
42887;BME280;29032;56.028;92.904;2022-10-16T03:59:43;100848.78;;;3.24;53.95
42887;BME280;29032;56.028;92.904;2022-10-16T04:04:45;100832.31;;;3.33;53.25
42887;BME280;29032;56.028;92.904;2022-10-16T04:09:47;100839.75;;;3.46;53.04
42887;BME280;29032;56.028;92.904;2022-10-16T04:14:51;100836.13;;;3.58;52.86
42887;BME280;29032;56.028;92.904;2022-10-16T04:19:53;100831.41;;;3.68;53.07
42887;BME280;29032;56.028;92.904;2022-10-16T04:24:55;100820.75;;;3.79;52.75
42887;BME280;29032;56.028;92.904;2022-10-16T04:29:59;100820.59;;;3.82;52.38
42887;BME280;29032;56.028;92.904;2022-10-16T04:35:01;100821.38;;;3.83;52.35
42887;BME280;29032;56.028;92.904;2022-10-16T04:40:04;100817.56;;;3.89;51.14
42887;BME280;29032;56.028;92.904;2022-10-16T04:45:08;100806.44;;;4.02;51.05
42887;BME280;29032;56.028;92.904;2022-10-16T04:50:11;100803.38;;;4.09;50.93
42887;BME280;29032;56.028;92.904;2022-10-16T04:55:13;100795.88;;;4.10;51.18
42887;BME280;29032;56.028;92.904;2022-10-16T05:00:17;100789.78;;;4.15;51.45
42887;BME280;29032;56.028;92.904;2022-10-16T05:05:19;100778.44;;;4.22;50.48
42887;BME280;29032;56.028;92.904;2022-10-16T05:10:21;100778.75;;;4.52;50.61
42887;BME280;29032;56.028;92.904;2022-10-16T05:15:24;100765.88;;;4.76;49.86
42887;BME280;29032;56.028;92.904;2022-10-16T05:20:27;100756.78;;;4.94;49.71
42887;BME280;29032;56.028;92.904;2022-10-16T05:25:29;100749.50;;;5.24;50.09
42887;BME280;29032;56.028;92.904;2022-10-16T05:30:32;100747.00;;;5.44;48.87
42887;BME280;29032;56.028;92.904;2022-10-16T05:35:34;100736.03;;;5.59;49.64
42887;BME280;29032;56.028;92.904;2022-10-16T05:40:36;100733.78;;;5.82;48.52
42887;BME280;29032;56.028;92.904;2022-10-16T05:45:40;100728.63;;;6.13;48.33
42887;BME280;29032;56.028;92.904;2022-10-16T05:50:42;100712.66;;;6.32;46.90
42887;BME280;29032;56.028;92.904;2022-10-16T05:55:51;100714.59;;;6.55;47.92
42887;BME280;29032;56.028;92.904;2022-10-16T06:00:56;100702.00;;;6.69;46.59
42887;BME280;29032;56.028;92.904;2022-10-16T06:05:58;100696.28;;;6.73;46.35
42887;BME280;29032;56.028;92.904;2022-10-16T06:11:02;100697.81;;;6.88;46.11
42887;BME280;29032;56.028;92.904;2022-10-16T06:16:06;100692.16;;;6.98;46.80
42887;BME280;29032;56.028;92.904;2022-10-16T06:21:10;100687.66;;;7.00;47.95
42887;BME280;29032;56.028;92.904;2022-10-16T06:26:13;100681.94;;;7.04;47.15
42887;BME280;29032;56.028;92.904;2022-10-16T06:31:17;100673.72;;;7.24;47.38
42887;BME280;29032;56.028;92.904;2022-10-16T06:36:20;100675.91;;;7.76;46.94
42887;BME280;29032;56.028;92.904;2022-10-16T06:41:23;100667.25;;;8.09;44.95
42887;BME280;29032;56.028;92.904;2022-10-16T06:46:27;100661.88;;;8.25;44.19
42887;BME280;29032;56.028;92.904;2022-10-16T06:51:29;100664.22;;;8.33;43.34
42887;BME280;29032;56.028;92.904;2022-10-16T06:56:32;100651.91;;;8.39;43.52
42887;BME280;29032;56.028;92.904;2022-10-16T07:01:36;100643.53;;;8.60;45.25
42887;BME280;29032;56.028;92.904;2022-10-16T07:06:38;100639.31;;;8.70;44.68
42887;BME280;29032;56.028;92.904;2022-10-16T07:11:41;100636.31;;;8.73;44.23
42887;BME280;29032;56.028;92.904;2022-10-16T07:16:44;100627.50;;;8.75;44.85
42887;BME280;29032;56.028;92.904;2022-10-16T07:21:46;100623.69;;;8.72;44.35
42887;BME280;29032;56.028;92.904;2022-10-16T07:26:49;100618.16;;;8.72;44.49
42887;BME280;29032;56.028;92.904;2022-10-16T07:31:52;100608.88;;;8.81;44.12
42887;BME280;29032;56.028;92.904;2022-10-16T07:36:54;100602.44;;;8.95;43.60
42887;BME280;29032;56.028;92.904;2022-10-16T07:41:56;100591.91;;;9.10;44.07
42887;BME280;29032;56.028;92.904;2022-10-16T07:47:00;100588.94;;;9.20;43.77
42887;BME280;29032;56.028;92.904;2022-10-16T07:52:02;100578.38;;;9.29;43.94
42887;BME280;29032;56.028;92.904;2022-10-16T07:57:04;100576.16;;;9.45;43.31
42887;BME280;29032;56.028;92.904;2022-10-16T08:02:08;100572.69;;;9.61;43.87
42887;BME280;29032;56.028;92.904;2022-10-16T08:07:10;100566.59;;;9.51;43.42
42887;BME280;29032;56.028;92.904;2022-10-16T08:12:13;100515.94;;;9.19;43.79
42887;BME280;29032;56.028;92.904;2022-10-16T08:17:19;100544.09;;;9.49;43.73
42887;BME280;29032;56.028;92.904;2022-10-16T08:22:21;100535.97;;;9.46;43.40
42887;BME280;29032;56.028;92.904;2022-10-16T08:27:23;100551.50;;;9.69;42.70
42887;BME280;29032;56.028;92.904;2022-10-16T08:32:27;100553.34;;;10.11;42.25
42887;BME280;29032;56.028;92.904;2022-10-16T08:37:30;100545.25;;;10.13;42.51
42887;BME280;29032;56.028;92.904;2022-10-16T08:42:47;100549.03;;;10.05;43.26
42887;BME280;29032;56.028;92.904;2022-10-16T08:48:04;100545.72;;;9.84;43.35
42887;BME280;29032;56.028;92.904;2022-10-16T08:53:13;100541.88;;;9.70;43.08
42887;BME280;29032;56.028;92.904;2022-10-16T08:58:17;100541.09;;;9.58;42.93
42887;BME280;29032;56.028;92.904;2022-10-16T09:03:51;100539.31;;;9.61;43.86
42887;BME280;29032;56.028;92.904;2022-10-16T09:09:18;100536.25;;;9.48;43.24
42887;BME280;29032;56.028;92.904;2022-10-16T09:14:36;100527.16;;;9.42;43.82
42887;BME280;29032;56.028;92.904;2022-10-16T09:19:46;100528.09;;;9.33;43.89
42887;BME280;29032;56.028;92.904;2022-10-16T09:24:51;100528.03;;;9.16;43.06
42887;BME280;29032;56.028;92.904;2022-10-16T09:29:53;100530.78;;;9.10;43.23
42887;BME280;29032;56.028;92.904;2022-10-16T09:34:57;100527.50;;;9.06;43.36
42887;BME280;29032;56.028;92.904;2022-10-16T09:39:59;100517.81;;;8.91;43.58
42887;BME280;29032;56.028;92.904;2022-10-16T09:45:02;100513.75;;;8.86;43.52
42887;BME280;29032;56.028;92.904;2022-10-16T09:50:22;100512.06;;;9.00;44.00
42887;BME280;29032;56.028;92.904;2022-10-16T09:55:25;100505.63;;;8.77;43.48
42887;BME280;29032;56.028;92.904;2022-10-16T10:00:27;100501.25;;;8.65;43.82
42887;BME280;29032;56.028;92.904;2022-10-16T10:05:30;100496.16;;;8.58;44.13
42887;BME280;29032;56.028;92.904;2022-10-16T10:10:37;100488.59;;;8.58;44.66
42887;BME280;29032;56.028;92.904;2022-10-16T10:15:41;100487.25;;;8.48;43.83
42887;BME280;29032;56.028;92.904;2022-10-16T10:20:45;100478.91;;;8.42;44.03
42887;BME280;29032;56.028;92.904;2022-10-16T10:25:52;100473.56;;;8.39;44.61
42887;BME280;29032;56.028;92.904;2022-10-16T10:31:03;100472.72;;;8.27;44.71
42887;BME280;29032;56.028;92.904;2022-10-16T10:36:24;100461.31;;;8.19;45.28
42887;BME280;29032;56.028;92.904;2022-10-16T10:46:57;100461.06;;;7.86;45.22
42887;BME280;29032;56.028;92.904;2022-10-16T10:52:20;100452.47;;;7.84;45.51
42887;BME280;29032;56.028;92.904;2022-10-16T10:57:33;100463.16;;;7.65;45.20
42887;BME280;29032;56.028;92.904;2022-10-16T11:02:41;100458.75;;;7.53;46.18
42887;BME280;29032;56.028;92.904;2022-10-16T11:07:49;100451.06;;;7.42;45.74
42887;BME280;29032;56.028;92.904;2022-10-16T11:12:56;100441.13;;;7.30;46.71
42887;BME280;29032;56.028;92.904;2022-10-16T11:18:04;100440.31;;;7.24;46.14
42887;BME280;29032;56.028;92.904;2022-10-16T11:23:14;100446.78;;;7.21;46.62
42887;BME280;29032;56.028;92.904;2022-10-16T11:28:20;100445.56;;;7.01;46.40
42887;BME280;29032;56.028;92.904;2022-10-16T11:33:29;100449.16;;;6.87;46.76
42887;BME280;29032;56.028;92.904;2022-10-16T11:38:41;100442.03;;;6.80;47.23
42887;BME280;29032;56.028;92.904;2022-10-16T11:43:50;100439.94;;;6.75;47.25
42887;BME280;29032;56.028;92.904;2022-10-16T11:48:59;100439.34;;;6.66;47.72
42887;BME280;29032;56.028;92.904;2022-10-16T11:54:08;100443.47;;;6.55;48.11
42887;BME280;29032;56.028;92.904;2022-10-16T11:59:22;100435.06;;;6.50;48.33
42887;BME280;29032;56.028;92.904;2022-10-16T12:04:33;100435.84;;;6.50;48.37
42887;BME280;29032;56.028;92.904;2022-10-16T12:09:39;100437.75;;;6.44;48.08
42887;BME280;29032;56.028;92.904;2022-10-16T12:14:42;100443.94;;;6.19;48.17
42887;BME280;29032;56.028;92.904;2022-10-16T12:19:44;100438.22;;;6.07;48.54
42887;BME280;29032;56.028;92.904;2022-10-16T12:24:51;100438.22;;;6.07;49.03
42887;BME280;29032;56.028;92.904;2022-10-16T12:29:54;100431.50;;;6.29;47.96
42887;BME280;29032;56.028;92.904;2022-10-16T12:34:58;100438.44;;;6.04;48.79
42887;BME280;29032;56.028;92.904;2022-10-16T12:40:12;100433.28;;;6.12;49.07
42887;BME280;29032;56.028;92.904;2022-10-16T12:45:28;100425.66;;;6.06;48.74
42887;BME280;29032;56.028;92.904;2022-10-16T12:50:34;100423.78;;;5.98;49.00
42887;BME280;29032;56.028;92.904;2022-10-16T12:55:46;100420.88;;;6.07;49.05
42887;BME280;29032;56.028;92.904;2022-10-16T13:00:56;100414.44;;;5.95;48.89
42887;BME280;29032;56.028;92.904;2022-10-16T13:06:08;100411.22;;;5.82;48.46
42887;BME280;29032;56.028;92.904;2022-10-16T13:11:22;100405.69;;;5.82;48.75
42887;BME280;29032;56.028;92.904;2022-10-16T13:16:34;100405.31;;;5.89;48.84
42887;BME280;29032;56.028;92.904;2022-10-16T13:21:44;100405.97;;;5.84;48.31
42887;BME280;29032;56.028;92.904;2022-10-16T13:26:55;100392.53;;;5.77;48.70
42887;BME280;29032;56.028;92.904;2022-10-16T13:32:11;100397.78;;;5.75;49.54
42887;BME280;29032;56.028;92.904;2022-10-16T13:37:18;100393.56;;;5.79;49.26
42887;BME280;29032;56.028;92.904;2022-10-16T13:42:24;100389.28;;;5.78;49.25
42887;BME280;29032;56.028;92.904;2022-10-16T13:47:29;100382.63;;;5.70;49.44
42887;BME280;29032;56.028;92.904;2022-10-16T13:52:31;100379.78;;;5.65;49.15
42887;BME280;29032;56.028;92.904;2022-10-16T13:57:35;100369.69;;;5.62;48.84
42887;BME280;29032;56.028;92.904;2022-10-16T14:02:39;100363.41;;;5.46;49.78
42887;BME280;29032;56.028;92.904;2022-10-16T14:07:42;100356.53;;;5.27;49.88
42887;BME280;29032;56.028;92.904;2022-10-16T14:12:54;100359.00;;;5.25;49.43
42887;BME280;29032;56.028;92.904;2022-10-16T14:17:57;100360.03;;;5.13;50.71
42887;BME280;29032;56.028;92.904;2022-10-16T14:23:01;100354.25;;;5.11;50.04
42887;BME280;29032;56.028;92.904;2022-10-16T14:28:16;100354.03;;;5.14;49.79
42887;BME280;29032;56.028;92.904;2022-10-16T14:33:22;100347.91;;;4.95;50.04
42887;BME280;29032;56.028;92.904;2022-10-16T14:38:25;100340.09;;;4.79;50.70
42887;BME280;29032;56.028;92.904;2022-10-16T14:43:32;100335.16;;;4.83;50.12
42887;BME280;29032;56.028;92.904;2022-10-16T14:48:35;100337.63;;;4.81;50.32
42887;BME280;29032;56.028;92.904;2022-10-16T14:53:37;100335.34;;;4.80;50.47
42887;BME280;29032;56.028;92.904;2022-10-16T14:58:41;100339.16;;;4.82;50.10
42887;BME280;29032;56.028;92.904;2022-10-16T15:03:43;100332.47;;;4.74;50.03
42887;BME280;29032;56.028;92.904;2022-10-16T15:08:45;100333.78;;;4.64;50.55
42887;BME280;29032;56.028;92.904;2022-10-16T15:13:49;100330.44;;;4.60;50.59
42887;BME280;29032;56.028;92.904;2022-10-16T15:18:51;100334.97;;;4.48;50.60
42887;BME280;29032;56.028;92.904;2022-10-16T15:23:53;100330.78;;;4.53;50.88
42887;BME280;29032;56.028;92.904;2022-10-16T15:28:57;100331.78;;;4.64;50.88
42887;BME280;29032;56.028;92.904;2022-10-16T15:33:59;100323.75;;;4.76;50.83
42887;BME280;29032;56.028;92.904;2022-10-16T15:39:02;100320.13;;;4.84;50.23
42887;BME280;29032;56.028;92.904;2022-10-16T15:44:05;100319.84;;;4.82;50.27
42887;BME280;29032;56.028;92.904;2022-10-16T15:49:08;100329.66;;;4.83;51.14
42887;BME280;29032;56.028;92.904;2022-10-16T15:54:11;100321.66;;;4.85;51.15
42887;BME280;29032;56.028;92.904;2022-10-16T15:59:14;100326.31;;;4.94;50.91
42887;BME280;29032;56.028;92.904;2022-10-16T16:04:16;100321.66;;;5.00;51.44
42887;BME280;29032;56.028;92.904;2022-10-16T16:09:18;100311.38;;;5.01;50.66
42887;BME280;29032;56.028;92.904;2022-10-16T16:14:22;100309.22;;;5.05;50.73
42887;BME280;29032;56.028;92.904;2022-10-16T16:19:24;100301.97;;;4.92;50.73
42887;BME280;29032;56.028;92.904;2022-10-16T16:24:26;100291.59;;;4.87;51.30
42887;BME280;29032;56.028;92.904;2022-10-16T16:29:30;100292.16;;;4.91;51.40
42887;BME280;29032;56.028;92.904;2022-10-16T16:34:32;100284.53;;;4.86;51.20
42887;BME280;29032;56.028;92.904;2022-10-16T16:39:34;100281.50;;;4.84;51.36
42887;BME280;29032;56.028;92.904;2022-10-16T16:44:38;100276.84;;;4.90;51.41
42887;BME280;29032;56.028;92.904;2022-10-16T16:49:40;100274.47;;;4.83;50.71
42887;BME280;29032;56.028;92.904;2022-10-16T16:54:42;100266.25;;;4.74;50.55
42887;BME280;29032;56.028;92.904;2022-10-16T16:59:46;100270.25;;;4.58;50.97
42887;BME280;29032;56.028;92.904;2022-10-16T17:04:48;100260.69;;;4.44;51.37
42887;BME280;29032;56.028;92.904;2022-10-16T17:09:50;100258.59;;;4.39;50.91
42887;BME280;29032;56.028;92.904;2022-10-16T17:14:54;100250.13;;;4.28;52.02
42887;BME280;29032;56.028;92.904;2022-10-16T17:19:56;100247.66;;;4.30;51.51
42887;BME280;29032;56.028;92.904;2022-10-16T17:24:58;100240.78;;;4.26;52.09
42887;BME280;29032;56.028;92.904;2022-10-16T17:30:02;100229.47;;;4.24;52.29
42887;BME280;29032;56.028;92.904;2022-10-16T17:35:05;100231.75;;;4.25;51.70
42887;BME280;29032;56.028;92.904;2022-10-16T17:40:08;100227.41;;;4.33;52.10
42887;BME280;29032;56.028;92.904;2022-10-16T17:45:12;100226.09;;;4.43;51.15
42887;BME280;29032;56.028;92.904;2022-10-16T17:50:14;100217.34;;;4.45;51.24
42887;BME280;29032;56.028;92.904;2022-10-16T17:55:17;100208.59;;;4.47;51.05
42887;BME280;29032;56.028;92.904;2022-10-16T18:00:20;100199.94;;;4.39;51.27
42887;BME280;29032;56.028;92.904;2022-10-16T18:05:22;100203.50;;;4.15;51.50
42887;BME280;29032;56.028;92.904;2022-10-16T18:10:24;100200.72;;;4.01;52.13
42887;BME280;29032;56.028;92.904;2022-10-16T18:15:28;100190.06;;;3.94;52.79
42887;BME280;29032;56.028;92.904;2022-10-16T18:20:30;100195.41;;;3.73;52.55
42887;BME280;29032;56.028;92.904;2022-10-16T18:25:32;100183.34;;;3.71;52.94
42887;BME280;29032;56.028;92.904;2022-10-16T18:30:36;100184.78;;;3.81;52.48
42887;BME280;29032;56.028;92.904;2022-10-16T18:35:38;100163.63;;;3.87;52.35
42887;BME280;29032;56.028;92.904;2022-10-16T18:40:40;100163.16;;;3.88;52.32
42887;BME280;29032;56.028;92.904;2022-10-16T18:45:43;100168.53;;;3.83;52.41
42887;BME280;29032;56.028;92.904;2022-10-16T18:51:05;100158.41;;;3.89;52.12
42887;BME280;29032;56.028;92.904;2022-10-16T18:56:08;100155.38;;;3.87;52.08
42887;BME280;29032;56.028;92.904;2022-10-16T19:01:13;100153.00;;;3.95;52.12
42887;BME280;29032;56.028;92.904;2022-10-16T19:06:16;100145.22;;;3.93;52.05
42887;BME280;29032;56.028;92.904;2022-10-16T19:11:20;100148.44;;;3.92;52.25
42887;BME280;29032;56.028;92.904;2022-10-16T19:16:25;100145.97;;;3.94;52.31
42887;BME280;29032;56.028;92.904;2022-10-16T19:21:27;100131.25;;;3.97;51.92
42887;BME280;29032;56.028;92.904;2022-10-16T19:26:30;100124.69;;;3.94;51.97
42887;BME280;29032;56.028;92.904;2022-10-16T19:31:34;100122.06;;;4.00;52.05
42887;BME280;29032;56.028;92.904;2022-10-16T19:36:37;100115.03;;;3.99;51.46
42887;BME280;29032;56.028;92.904;2022-10-16T19:41:40;100116.72;;;3.96;51.53
42887;BME280;29032;56.028;92.904;2022-10-16T19:46:44;100113.94;;;3.81;52.00
42887;BME280;29032;56.028;92.904;2022-10-16T19:51:47;100104.50;;;3.73;52.19
42887;BME280;29032;56.028;92.904;2022-10-16T19:56:49;100110.03;;;3.73;52.24
42887;BME280;29032;56.028;92.904;2022-10-16T20:01:53;100100.34;;;3.78;52.38
42887;BME280;29032;56.028;92.904;2022-10-16T20:06:55;100098.66;;;3.80;52.39
42887;BME280;29032;56.028;92.904;2022-10-16T20:11:57;100099.13;;;3.79;51.75
42887;BME280;29032;56.028;92.904;2022-10-16T20:17:01;100092.53;;;3.76;52.27
42887;BME280;29032;56.028;92.904;2022-10-16T20:22:03;100090.66;;;3.82;52.15
42887;BME280;29032;56.028;92.904;2022-10-16T20:27:05;100072.25;;;3.88;51.98
42887;BME280;29032;56.028;92.904;2022-10-16T20:32:08;100062.59;;;3.93;51.97
42887;BME280;29032;56.028;92.904;2022-10-16T20:37:10;100055.72;;;3.88;51.21
42887;BME280;29032;56.028;92.904;2022-10-16T20:42:12;100051.25;;;3.76;52.02
42887;BME280;29032;56.028;92.904;2022-10-16T20:47:16;100053.72;;;3.74;52.59
42887;BME280;29032;56.028;92.904;2022-10-16T20:52:18;100049.41;;;3.58;51.84
42887;BME280;29032;56.028;92.904;2022-10-16T20:57:20;100047.38;;;3.44;52.05
42887;BME280;29032;56.028;92.904;2022-10-16T21:02:24;100051.63;;;3.30;53.18
42887;BME280;29032;56.028;92.904;2022-10-16T21:07:26;100040.78;;;3.27;53.36
42887;BME280;29032;56.028;92.904;2022-10-16T21:12:28;100035.75;;;3.25;52.78
42887;BME280;29032;56.028;92.904;2022-10-16T21:17:32;100023.69;;;3.23;52.90
42887;BME280;29032;56.028;92.904;2022-10-16T21:22:34;100010.97;;;3.25;52.87
42887;BME280;29032;56.028;92.904;2022-10-16T21:27:36;100017.00;;;3.39;52.49
42887;BME280;29032;56.028;92.904;2022-10-16T21:32:40;100000.22;;;3.51;52.28
42887;BME280;29032;56.028;92.904;2022-10-16T21:37:46;100002.22;;;3.51;52.10
42887;BME280;29032;56.028;92.904;2022-10-16T21:42:49;99990.56;;;3.56;52.07
42887;BME280;29032;56.028;92.904;2022-10-16T21:47:52;99979.72;;;3.67;51.62
42887;BME280;29032;56.028;92.904;2022-10-16T21:52:54;99978.22;;;3.66;51.34
42887;BME280;29032;56.028;92.904;2022-10-16T21:57:56;99978.31;;;3.57;51.13
42887;BME280;29032;56.028;92.904;2022-10-16T22:03:00;99970.41;;;3.35;51.71
42887;BME280;29032;56.028;92.904;2022-10-16T22:08:02;99973.06;;;3.05;52.26
42887;BME280;29032;56.028;92.904;2022-10-16T22:13:04;99953.91;;;2.87;52.31
42887;BME280;29032;56.028;92.904;2022-10-16T22:18:07;99954.00;;;2.78;52.90
42887;BME280;29032;56.028;92.904;2022-10-16T22:23:09;99946.41;;;2.64;52.85
42887;BME280;29032;56.028;92.904;2022-10-16T22:28:12;99939.59;;;2.59;52.73
42887;BME280;29032;56.028;92.904;2022-10-16T22:33:15;99940.16;;;2.63;53.07
42887;BME280;29032;56.028;92.904;2022-10-16T22:38:17;99933.63;;;2.61;53.06
42887;BME280;29032;56.028;92.904;2022-10-16T22:43:19;99931.69;;;2.76;52.45
42887;BME280;29032;56.028;92.904;2022-10-16T22:48:23;99912.63;;;2.96;52.56
42887;BME280;29032;56.028;92.904;2022-10-16T22:53:25;99919.53;;;2.92;51.89
42887;BME280;29032;56.028;92.904;2022-10-16T22:58:27;99922.72;;;2.90;52.72
42887;BME280;29032;56.028;92.904;2022-10-16T23:03:31;99906.38;;;2.96;52.06
42887;BME280;29032;56.028;92.904;2022-10-16T23:08:33;99899.50;;;2.91;52.62
42887;BME280;29032;56.028;92.904;2022-10-16T23:13:36;99883.47;;;2.90;52.26
42887;BME280;29032;56.028;92.904;2022-10-16T23:18:40;99877.56;;;2.82;52.56
42887;BME280;29032;56.028;92.904;2022-10-16T23:23:43;99871.91;;;2.86;53.22
42887;BME280;29032;56.028;92.904;2022-10-16T23:28:45;99861.47;;;2.90;52.32
42887;BME280;29032;56.028;92.904;2022-10-16T23:33:49;99873.03;;;2.79;52.81
42887;BME280;29032;56.028;92.904;2022-10-16T23:38:51;99868.28;;;2.79;53.71
42887;BME280;29032;56.028;92.904;2022-10-16T23:43:54;99848.06;;;2.83;52.70
42887;BME280;29032;56.028;92.904;2022-10-16T23:48:58;99833.19;;;2.74;52.94
42887;BME280;29032;56.028;92.904;2022-10-16T23:54:00;99839.13;;;2.58;53.18
42887;BME280;29032;56.028;92.904;2022-10-16T23:59:02;99831.63;;;2.59;54.21
